createdAt,value
2023-04-30T00:00:01.794Z,6.71
2023-04-30T00:02:34.660Z,6.66
2023-04-30T00:05:04.918Z,6.61
2023-04-30T00:07:34.925Z,6.27
2023-04-30T00:10:05.602Z,6.34
2023-04-30T00:12:35.807Z,6.40
2023-04-30T00:15:06.516Z,6.20
2023-04-30T00:17:39.617Z,6.33
2023-04-30T00:20:10.881Z,6.78
2023-04-30T00:22:40.841Z,6.60
2023-04-30T00:25:11.576Z,6.28
2023-04-30T00:27:41.864Z,6.34
2023-04-30T00:30:12.505Z,6.62
2023-04-30T00:32:46.815Z,6.60
2023-04-30T00:35:16.782Z,6.88
2023-04-30T00:37:46.750Z,7.13
2023-04-30T00:40:16.863Z,8.03
2023-04-30T00:42:46.896Z,7.74
2023-04-30T00:45:18.155Z,8.48
2023-04-30T00:47:50.779Z,8.43
2023-04-30T00:50:20.996Z,8.69
2023-04-30T00:52:51.454Z,8.84
2023-04-30T00:55:21.792Z,8.48
2023-04-30T00:57:51.933Z,8.94
2023-04-30T01:00:22.281Z,8.78
2023-04-30T01:02:56.006Z,8.70
2023-04-30T01:05:26.332Z,8.77
2023-04-30T01:07:58.884Z,8.64
2023-04-30T01:10:38.355Z,8.57
2023-04-30T01:13:15.809Z,8.73
2023-04-30T01:15:56.038Z,8.77
2023-04-30T01:18:34.286Z,8.69
2023-04-30T01:21:08.351Z,8.76
2023-04-30T01:23:53.104Z,8.84
2023-04-30T01:26:41.577Z,9.19
2023-04-30T01:29:17.450Z,8.56
2023-04-30T01:31:47.791Z,8.81
2023-04-30T01:34:17.956Z,8.74
2023-04-30T01:37:02.414Z,8.74
2023-04-30T01:39:51.686Z,8.53
2023-04-30T01:42:25.320Z,8.16
2023-04-30T01:45:15.940Z,8.22
2023-04-30T01:47:56.014Z,8.28
2023-04-30T01:50:37.064Z,7.90
2023-04-30T01:53:12.516Z,7.95
2023-04-30T01:55:47.665Z,8.02
2023-04-30T01:58:20.101Z,7.76
2023-04-30T02:00:52.744Z,7.64
2023-04-30T02:03:22.882Z,7.91
2023-04-30T02:05:53.867Z,7.62
2023-04-30T02:08:24.309Z,7.10
2023-04-30T02:10:54.255Z,7.24
2023-04-30T02:13:24.249Z,6.92
2023-04-30T02:15:56.860Z,7.51
2023-04-30T02:18:26.855Z,7.36
2023-04-30T02:20:56.819Z,7.26
2023-04-30T02:23:26.753Z,6.97
2023-04-30T02:25:56.738Z,7.10
2023-04-30T02:28:26.880Z,6.96
2023-04-30T02:30:59.690Z,7.34
2023-04-30T02:33:29.620Z,7.21
2023-04-30T02:36:01.653Z,7.79
2023-04-30T02:38:31.718Z,7.12
2023-04-30T02:41:02.499Z,7.47
2023-04-30T02:43:32.613Z,6.98
2023-04-30T02:46:06.755Z,7.52
2023-04-30T02:48:37.315Z,7.45
2023-04-30T02:51:07.694Z,7.35
2023-04-30T02:53:37.685Z,7.19
2023-04-30T02:56:08.659Z,7.48
2023-04-30T02:58:38.789Z,7.41
2023-04-30T03:01:11.418Z,7.55
2023-04-30T03:03:41.512Z,7.73
2023-04-30T03:06:11.566Z,7.98
2023-04-30T03:08:41.644Z,7.91
2023-04-30T03:11:11.605Z,7.84
2023-04-30T03:13:43.066Z,7.86
2023-04-30T03:16:15.672Z,7.70
2023-04-30T03:18:45.740Z,8.01
2023-04-30T03:21:15.877Z,7.72
2023-04-30T03:23:46.411Z,8.19
2023-04-30T03:26:17.116Z,7.92
2023-04-30T03:28:47.053Z,7.76
2023-04-30T03:31:19.620Z,8.03
2023-04-30T03:33:49.746Z,7.84
2023-04-30T03:36:19.760Z,8.19
2023-04-30T03:38:49.674Z,8.59
2023-04-30T03:41:19.823Z,8.41
2023-04-30T03:43:49.803Z,8.40
2023-04-30T03:46:22.576Z,8.68
2023-04-30T03:48:52.748Z,8.55
2023-04-30T03:51:24.497Z,8.66
2023-04-30T03:53:54.427Z,8.48
2023-04-30T03:56:25.998Z,8.58
2023-04-30T03:58:56.287Z,8.82
2023-04-30T04:01:29.545Z,8.53
2023-04-30T04:04:00.144Z,8.63
2023-04-30T04:06:30.620Z,8.89
2023-04-30T04:09:00.713Z,8.74
2023-04-30T04:11:30.661Z,8.88
2023-04-30T04:14:01.276Z,8.67
2023-04-30T04:16:33.926Z,9.02
2023-04-30T04:19:04.702Z,8.59
2023-04-30T04:21:35.517Z,8.97
2023-04-30T04:24:11.486Z,8.58
2023-04-30T04:26:41.595Z,8.63
2023-04-30T04:29:12.867Z,9.17
2023-04-30T04:31:49.223Z,9.07
2023-04-30T04:34:20.154Z,9.18
2023-04-30T04:36:50.471Z,8.92
2023-04-30T04:39:20.405Z,9.26
2023-04-30T04:41:50.299Z,9.07
2023-04-30T04:44:20.494Z,9.54
2023-04-30T04:46:54.414Z,9.65
2023-04-30T04:49:24.349Z,9.85
2023-04-30T04:51:55.747Z,9.48
2023-04-30T04:54:25.823Z,9.15
2023-04-30T04:56:55.864Z,9.68
2023-04-30T04:59:26.771Z,9.69
2023-04-30T05:01:59.333Z,9.92
2023-04-30T05:04:30.551Z,10.21
2023-04-30T05:07:00.546Z,10.18
2023-04-30T05:09:30.471Z,10.29
2023-04-30T05:12:00.436Z,10.26
2023-04-30T05:14:30.414Z,10.48
2023-04-30T05:17:02.982Z,10.12
2023-04-30T05:19:32.909Z,10.08
2023-04-30T05:22:03.568Z,11.31
2023-04-30T05:24:34.334Z,11.83
2023-04-30T05:27:05.751Z,12.61
2023-04-30T05:29:35.689Z,11.98
2023-04-30T05:32:08.775Z,11.87
2023-04-30T05:34:38.919Z,11.99
2023-04-30T05:37:08.841Z,12.35
2023-04-30T05:39:38.897Z,12.91
2023-04-30T05:42:08.982Z,13.51
2023-04-30T05:44:38.951Z,11.83
2023-04-30T05:47:11.543Z,11.83
2023-04-30T05:49:41.784Z,12.24
2023-04-30T05:52:12.136Z,12.42
2023-04-30T05:54:42.167Z,11.75
2023-04-30T05:57:12.221Z,12.16
2023-04-30T05:59:42.318Z,12.44
2023-04-30T06:02:15.176Z,12.00
2023-04-30T06:04:45.296Z,11.83
2023-04-30T06:07:15.724Z,12.76
2023-04-30T06:09:45.694Z,12.34
2023-04-30T06:12:15.893Z,12.39
2023-04-30T06:14:46.248Z,12.02
2023-04-30T06:17:18.840Z,12.29
2023-04-30T06:19:48.791Z,12.39
2023-04-30T06:22:18.714Z,12.05
2023-04-30T06:24:48.643Z,12.00
2023-04-30T06:27:18.624Z,12.14
2023-04-30T06:29:48.612Z,12.74
2023-04-30T06:32:21.111Z,11.88
2023-04-30T06:34:51.158Z,12.67
2023-04-30T06:37:21.182Z,12.77
2023-04-30T06:39:52.945Z,15.29
2023-04-30T06:42:23.218Z,12.99
2023-04-30T06:44:53.283Z,12.25
2023-04-30T06:47:25.952Z,12.74
2023-04-30T06:49:56.114Z,12.82
2023-04-30T06:52:26.249Z,12.86
2023-04-30T06:54:56.198Z,13.17
2023-04-30T06:57:26.128Z,12.29
2023-04-30T06:59:56.903Z,12.51
2023-04-30T07:02:29.606Z,11.65
2023-04-30T07:04:59.898Z,12.63
2023-04-30T07:07:29.924Z,12.90
2023-04-30T07:09:59.902Z,12.99
2023-04-30T07:12:29.902Z,13.47
2023-04-30T07:14:59.851Z,13.60
2023-04-30T07:17:32.394Z,12.38
2023-04-30T07:20:02.444Z,12.03
2023-04-30T07:22:32.472Z,12.38
2023-04-30T07:25:02.476Z,12.05
2023-04-30T07:27:32.434Z,12.61
2023-04-30T07:30:02.333Z,12.51
2023-04-30T07:32:35.099Z,12.64
2023-04-30T07:35:05.261Z,12.41
2023-04-30T07:37:35.986Z,12.36
2023-04-30T07:40:07.804Z,12.39
2023-04-30T07:42:37.846Z,12.74
2023-04-30T07:45:09.196Z,12.11
2023-04-30T07:47:41.961Z,12.14
2023-04-30T07:50:12.566Z,12.47
2023-04-30T07:52:42.547Z,12.12
2023-04-30T07:55:12.841Z,12.45
2023-04-30T07:57:42.859Z,12.42
2023-04-30T08:00:13.738Z,12.00
2023-04-30T08:02:48.749Z,12.22
2023-04-30T08:05:19.093Z,12.85
2023-04-30T08:07:49.085Z,11.79
2023-04-30T08:10:19.039Z,11.29
2023-04-30T08:12:49.037Z,10.68
2023-04-30T08:15:21.876Z,11.30
2023-04-30T08:17:55.384Z,10.79
2023-04-30T08:20:26.497Z,10.35
2023-04-30T08:22:56.614Z,10.38
2023-04-30T08:25:26.732Z,10.29
2023-04-30T08:27:56.772Z,10.15
2023-04-30T08:30:27.201Z,9.90
2023-04-30T08:32:59.907Z,9.36
2023-04-30T08:35:30.141Z,9.01
2023-04-30T08:38:00.162Z,9.34
2023-04-30T08:40:49.168Z,9.06
2023-04-30T08:43:21.784Z,9.26
2023-04-30T08:45:54.869Z,8.95
2023-04-30T08:48:28.620Z,10.46
2023-04-30T08:50:58.662Z,9.82
2023-04-30T08:53:28.652Z,9.91
2023-04-30T08:55:58.616Z,9.30
2023-04-30T08:58:28.633Z,9.43
2023-04-30T09:01:01.178Z,10.12
2023-04-30T09:03:34.369Z,10.08
2023-04-30T09:06:04.532Z,11.43
2023-04-30T09:08:45.254Z,8.80
2023-04-30T09:11:30.478Z,8.61
2023-04-30T09:14:02.880Z,8.13
2023-04-30T09:16:47.838Z,8.56
2023-04-30T09:19:32.149Z,8.42
2023-04-30T09:22:02.345Z,8.92
2023-04-30T09:24:49.840Z,8.84
2023-04-30T09:27:21.181Z,9.22
2023-04-30T09:29:51.504Z,8.92
2023-04-30T09:32:21.493Z,8.74
2023-04-30T09:34:54.181Z,8.13
2023-04-30T09:37:24.247Z,7.88
2023-04-30T09:39:56.698Z,7.93
2023-04-30T09:42:26.960Z,7.66
2023-04-30T09:44:56.983Z,7.32
2023-04-30T09:47:27.056Z,6.82
2023-04-30T09:49:59.635Z,7.05
2023-04-30T09:52:29.651Z,6.98
2023-04-30T09:54:59.667Z,7.08
2023-04-30T09:57:31.895Z,7.22
2023-04-30T10:00:03.536Z,7.46
2023-04-30T10:02:41.770Z,7.60
2023-04-30T10:05:15.012Z,6.97
2023-04-30T10:07:45.699Z,7.27
2023-04-30T10:10:17.901Z,7.35
2023-04-30T10:12:53.597Z,7.55
2023-04-30T10:15:28.492Z,7.36
2023-04-30T10:18:05.552Z,6.46
2023-04-30T10:20:39.767Z,6.47
2023-04-30T10:23:11.564Z,6.45
2023-04-30T10:25:42.754Z,6.44
2023-04-30T10:28:14.436Z,6.09
2023-04-30T10:30:45.488Z,6.12
2023-04-30T10:33:28.730Z,5.99
2023-04-30T10:36:04.484Z,6.19
2023-04-30T10:38:36.583Z,6.23
2023-04-30T10:41:10.805Z,6.86
2023-04-30T10:43:41.209Z,5.87
2023-04-30T10:46:11.785Z,5.37
2023-04-30T10:48:42.067Z,5.70
2023-04-30T10:51:14.645Z,5.86
2023-04-30T10:53:47.325Z,6.18
2023-04-30T10:56:17.671Z,5.59
2023-04-30T10:58:47.716Z,5.51
2023-04-30T11:01:19.478Z,5.63
2023-04-30T11:04:08.336Z,5.56
2023-04-30T11:07:13.187Z,5.40
2023-04-30T11:09:46.212Z,5.47
2023-04-30T11:12:18.734Z,5.34
2023-04-30T11:14:49.319Z,5.24
2023-04-30T11:17:26.879Z,5.33
2023-04-30T11:20:01.912Z,4.81
2023-04-30T11:22:36.484Z,4.96
2023-04-30T11:25:09.708Z,4.66
2023-04-30T11:27:42.193Z,5.05
2023-04-30T11:30:17.344Z,4.76
2023-04-30T11:32:49.109Z,4.78
2023-04-30T11:35:21.838Z,4.83
2023-04-30T11:37:59.850Z,4.02
2023-04-30T11:40:30.569Z,4.85
2023-04-30T11:43:00.548Z,4.86
2023-04-30T11:45:30.667Z,4.68
2023-04-30T11:48:00.843Z,4.14
2023-04-30T11:50:36.594Z,4.07
2023-04-30T11:53:09.137Z,4.34
2023-04-30T11:55:40.446Z,4.00
2023-04-30T11:58:12.599Z,3.80
2023-04-30T12:00:42.695Z,3.84
2023-04-30T12:03:12.824Z,3.85
2023-04-30T12:05:44.290Z,3.92
2023-04-30T12:08:17.552Z,3.97
2023-04-30T12:10:47.603Z,4.18
2023-04-30T12:13:18.113Z,3.91
2023-04-30T12:16:03.122Z,3.88
2023-04-30T12:18:36.273Z,3.78
2023-04-30T12:21:07.022Z,3.91
2023-04-30T12:23:40.113Z,4.14
2023-04-30T12:26:10.094Z,4.16
2023-04-30T12:28:40.411Z,3.97
2023-04-30T12:31:12.070Z,3.70
2023-04-30T12:33:42.826Z,4.83
2023-04-30T12:36:13.784Z,4.92
2023-04-30T12:38:48.084Z,5.10
2023-04-30T12:41:19.463Z,5.11
2023-04-30T12:43:51.838Z,5.01
2023-04-30T12:46:30.325Z,5.64
2023-04-30T12:49:00.820Z,5.27
2023-04-30T12:51:30.827Z,4.98
2023-04-30T12:54:03.404Z,4.79
2023-04-30T12:56:33.410Z,4.88
2023-04-30T12:59:03.487Z,5.00
2023-04-30T13:01:33.806Z,4.87
2023-04-30T13:04:03.933Z,4.70
2023-04-30T13:06:34.109Z,4.96
2023-04-30T13:09:07.313Z,4.68
2023-04-30T13:11:37.334Z,5.30
2023-04-30T13:14:07.648Z,4.82
2023-04-30T13:16:39.446Z,4.79
2023-04-30T13:19:10.151Z,4.84
2023-04-30T13:21:40.172Z,4.75
2023-04-30T13:24:12.705Z,4.94
2023-04-30T13:26:42.986Z,4.43
2023-04-30T13:29:13.248Z,4.92
2023-04-30T13:31:43.239Z,4.84
2023-04-30T13:34:13.209Z,8.41
2023-04-30T13:36:43.691Z,6.03
2023-04-30T13:39:16.533Z,5.34
2023-04-30T13:41:48.068Z,4.88
2023-04-30T13:44:18.078Z,4.96
2023-04-30T13:46:48.285Z,4.49
2023-04-30T13:49:18.452Z,4.45
2023-04-30T13:51:48.443Z,4.57
2023-04-30T13:54:21.067Z,4.56
2023-04-30T13:56:51.261Z,4.75
2023-04-30T13:59:21.813Z,4.56
2023-04-30T14:01:51.823Z,4.21
2023-04-30T14:04:21.839Z,4.35
2023-04-30T14:06:53.025Z,4.42
2023-04-30T14:09:25.891Z,4.16
2023-04-30T14:11:56.211Z,4.47
2023-04-30T14:14:29.584Z,4.51
2023-04-30T14:16:59.753Z,5.13
2023-04-30T14:19:29.762Z,4.75
2023-04-30T14:21:59.753Z,4.69
2023-04-30T14:24:32.361Z,4.83
2023-04-30T14:27:04.043Z,4.61
2023-04-30T14:29:34.186Z,4.43
2023-04-30T14:32:04.402Z,4.32
2023-04-30T14:34:34.763Z,4.00
2023-04-30T14:37:06.276Z,4.59
2023-04-30T14:39:38.952Z,4.23
2023-04-30T14:42:09.024Z,4.08
2023-04-30T14:44:40.946Z,4.09
2023-04-30T14:47:10.975Z,4.61
2023-04-30T14:49:40.975Z,4.66
2023-04-30T14:52:10.993Z,4.88
2023-04-30T14:54:43.778Z,4.66
2023-04-30T14:57:13.941Z,4.58
2023-04-30T14:59:43.933Z,4.57
2023-04-30T15:02:14.256Z,4.06
2023-04-30T15:04:46.268Z,4.53
2023-04-30T15:07:16.627Z,4.29
2023-04-30T15:09:49.582Z,4.40
2023-04-30T15:12:20.255Z,4.86
2023-04-30T15:14:50.681Z,4.61
2023-04-30T15:17:21.023Z,5.06
2023-04-30T15:19:51.050Z,4.49
2023-04-30T15:22:21.057Z,4.38
2023-04-30T15:24:53.873Z,4.58
2023-04-30T15:27:23.920Z,4.31
2023-04-30T15:29:54.518Z,4.95
2023-04-30T15:32:24.715Z,4.51
2023-04-30T15:34:55.397Z,4.46
2023-04-30T15:37:25.756Z,4.85
2023-04-30T15:39:58.415Z,4.95
2023-04-30T15:42:28.378Z,5.12
2023-04-30T15:44:58.351Z,5.07
2023-04-30T15:47:28.462Z,5.26
2023-04-30T15:49:58.469Z,6.22
2023-04-30T15:52:28.525Z,6.04
2023-04-30T15:55:01.134Z,5.27
2023-04-30T15:57:31.174Z,5.03
2023-04-30T16:00:01.109Z,5.24
2023-04-30T16:02:31.121Z,5.19
2023-04-30T16:05:01.112Z,5.72
2023-04-30T16:07:31.791Z,5.41
2023-04-30T16:10:07.103Z,5.28
2023-04-30T16:12:37.673Z,5.45
2023-04-30T16:15:08.712Z,5.35
2023-04-30T16:17:38.771Z,5.35
2023-04-30T16:20:10.800Z,5.18
2023-04-30T16:22:41.303Z,5.06
2023-04-30T16:25:14.161Z,5.28
2023-04-30T16:27:44.840Z,4.98
2023-04-30T16:30:15.642Z,4.62
2023-04-30T16:32:45.577Z,4.60
2023-04-30T16:35:15.637Z,7.10
2023-04-30T16:37:45.649Z,6.19
2023-04-30T16:40:18.434Z,8.10
2023-04-30T16:42:48.432Z,4.83
2023-04-30T16:45:18.449Z,4.66
2023-04-30T16:47:48.846Z,4.47
2023-04-30T16:50:19.038Z,4.62
2023-04-30T16:52:49.064Z,4.72
2023-04-30T16:55:22.111Z,4.80
2023-04-30T16:57:53.979Z,5.20
2023-04-30T17:00:24.042Z,5.21
2023-04-30T17:02:54.124Z,5.35
2023-04-30T17:05:24.253Z,5.28
2023-04-30T17:07:54.260Z,5.07
2023-04-30T17:10:27.512Z,5.54
2023-04-30T17:12:59.566Z,5.97
2023-04-30T17:15:29.750Z,5.50
2023-04-30T17:18:00.356Z,5.53
2023-04-30T17:20:30.414Z,5.34
2023-04-30T17:23:01.975Z,5.23
2023-04-30T17:25:34.532Z,5.42
2023-04-30T17:28:04.482Z,7.03
2023-04-30T17:30:34.422Z,7.17
2023-04-30T17:33:06.194Z,5.40
2023-04-30T17:35:36.602Z,5.32
2023-04-30T17:38:06.725Z,5.33
2023-04-30T17:40:39.309Z,7.22
2023-04-30T17:43:09.320Z,6.45
2023-04-30T17:45:39.635Z,5.40
2023-04-30T17:48:09.671Z,4.94
2023-04-30T17:50:39.856Z,5.04
2023-04-30T17:53:09.848Z,5.09
2023-04-30T17:55:42.853Z,5.04
2023-04-30T17:58:12.938Z,4.90
2023-04-30T18:00:45.106Z,4.82
2023-04-30T18:03:15.276Z,4.67
2023-04-30T18:05:45.352Z,4.67
2023-04-30T18:08:15.359Z,5.01
2023-04-30T18:10:50.295Z,4.92
2023-04-30T18:13:20.315Z,4.72
2023-04-30T18:15:51.627Z,4.70
2023-04-30T18:18:21.802Z,4.90
2023-04-30T18:20:53.223Z,4.82
2023-04-30T18:23:23.740Z,4.93
2023-04-30T18:25:56.402Z,4.88
2023-04-30T18:28:26.569Z,5.08
2023-04-30T18:30:57.108Z,5.10
2023-04-30T18:33:27.426Z,5.01
2023-04-30T18:35:57.434Z,5.08
2023-04-30T18:38:27.563Z,5.16
2023-04-30T18:41:00.268Z,4.94
2023-04-30T18:43:30.366Z,5.18
2023-04-30T18:46:00.867Z,5.34
2023-04-30T18:48:30.965Z,5.16
2023-04-30T18:51:01.131Z,5.84
2023-04-30T18:53:31.175Z,5.34
2023-04-30T18:56:03.800Z,5.53
2023-04-30T18:58:33.949Z,5.28
2023-04-30T19:01:04.581Z,5.39
2023-04-30T19:03:35.009Z,5.47
2023-04-30T19:06:05.313Z,5.54
2023-04-30T19:08:35.331Z,5.28
2023-04-30T19:11:07.913Z,5.51
2023-04-30T19:13:37.941Z,5.47
2023-04-30T19:16:08.156Z,5.54
2023-04-30T19:18:38.727Z,5.35
2023-04-30T19:21:09.554Z,5.83
2023-04-30T19:23:39.548Z,5.54
2023-04-30T19:26:12.144Z,5.69
2023-04-30T19:28:42.186Z,6.10
2023-04-30T19:31:12.817Z,6.64
2023-04-30T19:33:43.170Z,6.87
2023-04-30T19:36:13.841Z,7.22
2023-04-30T19:38:43.814Z,7.39
2023-04-30T19:41:16.430Z,7.79
2023-04-30T19:43:46.547Z,8.09
2023-04-30T19:46:16.659Z,7.84
2023-04-30T19:48:47.437Z,8.25
2023-04-30T19:51:17.491Z,8.34
2023-04-30T19:53:47.812Z,8.30
2023-04-30T19:56:21.024Z,8.43
2023-04-30T19:58:51.024Z,8.27
2023-04-30T20:01:21.405Z,8.78
2023-04-30T20:03:52.256Z,9.38
2023-04-30T20:06:22.806Z,9.48
2023-04-30T20:08:53.039Z,9.29
2023-04-30T20:11:25.695Z,9.52
2023-04-30T20:13:57.835Z,9.45
2023-04-30T20:16:27.903Z,9.69
2023-04-30T20:18:57.889Z,9.92
2023-04-30T20:21:29.159Z,10.00
2023-04-30T20:24:00.357Z,10.11
2023-04-30T20:26:33.265Z,10.65
2023-04-30T20:29:03.231Z,11.11
2023-04-30T20:31:34.526Z,11.39
2023-04-30T20:34:04.635Z,10.84
2023-04-30T20:36:34.663Z,10.99
2023-04-30T20:39:04.744Z,10.63
2023-04-30T20:41:37.856Z,10.47
2023-04-30T20:44:07.873Z,10.95
2023-04-30T20:46:38.617Z,10.49
2023-04-30T20:49:11.255Z,11.08
2023-04-30T20:51:41.432Z,10.95
2023-04-30T20:54:11.567Z,11.74
2023-04-30T20:56:45.300Z,11.46
2023-04-30T20:59:15.790Z,11.72
2023-04-30T21:01:45.797Z,13.63
2023-04-30T21:04:15.965Z,17.85
2023-04-30T21:06:45.936Z,13.59
2023-04-30T21:09:16.000Z,12.23
2023-04-30T21:11:48.618Z,11.79
2023-04-30T21:14:18.745Z,11.84
2023-04-30T21:16:48.921Z,11.97
2023-04-30T21:19:18.890Z,12.16
2023-04-30T21:21:48.877Z,12.43
2023-04-30T21:24:19.277Z,12.55
2023-04-30T21:26:51.922Z,13.00
2023-04-30T21:29:22.022Z,12.78
2023-04-30T21:31:52.484Z,12.96
2023-04-30T21:34:22.528Z,13.13
2023-04-30T21:36:52.735Z,12.38
2023-04-30T21:39:22.743Z,13.16
2023-04-30T21:41:55.375Z,13.43
2023-04-30T21:44:25.401Z,14.01
2023-04-30T21:46:55.535Z,13.83
2023-04-30T21:49:26.232Z,14.13
2023-04-30T21:51:56.304Z,14.21
2023-04-30T21:54:26.287Z,14.54
2023-04-30T21:56:58.823Z,14.66
2023-04-30T21:59:28.765Z,14.53
2023-04-30T22:02:03.001Z,14.93
2023-04-30T22:04:35.296Z,14.00
2023-04-30T22:07:05.381Z,14.86
2023-04-30T22:09:35.399Z,15.35
2023-04-30T22:12:09.384Z,14.56
2023-04-30T22:14:39.680Z,14.67
2023-04-30T22:17:09.685Z,15.23
2023-04-30T22:19:39.672Z,14.81
2023-04-30T22:22:09.676Z,14.62
2023-04-30T22:24:39.672Z,15.09
2023-04-30T22:27:12.219Z,14.53
2023-04-30T22:29:42.271Z,14.47
2023-04-30T22:32:12.456Z,14.15
2023-04-30T22:34:44.548Z,13.89
2023-04-30T22:37:14.565Z,12.73
2023-04-30T22:39:44.533Z,13.64
2023-04-30T22:42:17.440Z,13.38
2023-04-30T22:44:49.006Z,13.44
2023-04-30T22:47:19.359Z,13.22
2023-04-30T22:49:49.566Z,12.79
2023-04-30T22:52:20.093Z,12.87
2023-04-30T22:54:50.248Z,12.73
2023-04-30T22:57:23.000Z,12.62
2023-04-30T22:59:53.141Z,12.45
2023-04-30T23:02:23.254Z,12.28
2023-04-30T23:04:53.312Z,12.24
2023-04-30T23:07:23.275Z,11.92
2023-04-30T23:09:53.482Z,12.20
2023-04-30T23:12:26.120Z,12.45
2023-04-30T23:14:56.104Z,12.15
2023-04-30T23:17:27.065Z,12.12
2023-04-30T23:19:57.495Z,12.62
2023-04-30T23:22:27.760Z,12.57
2023-04-30T23:24:58.135Z,12.53
2023-04-30T23:27:30.737Z,12.39
2023-04-30T23:30:00.802Z,12.41
2023-04-30T23:32:31.624Z,12.53
2023-04-30T23:35:01.694Z,12.44
2023-04-30T23:37:31.887Z,12.14
2023-04-30T23:40:01.890Z,11.81
2023-04-30T23:42:34.512Z,11.82
2023-04-30T23:45:04.691Z,11.27
2023-04-30T23:47:36.370Z,11.32
2023-04-30T23:50:07.037Z,11.39
2023-04-30T23:52:37.547Z,11.48
2023-04-30T23:55:08.555Z,10.77
2023-04-30T23:57:41.210Z,10.89
